createdAt,value
2017-03-08T00:00:15.671Z,0
2017-03-08T00:00:56.118Z,0
2017-03-08T00:01:36.604Z,0
2017-03-08T00:02:17.079Z,0
2017-03-08T00:02:57.536Z,0
2017-03-08T00:03:38.012Z,0
2017-03-08T00:04:18.516Z,0
2017-03-08T00:04:58.970Z,0
2017-03-08T00:05:39.458Z,0
2017-03-08T00:06:19.944Z,0
2017-03-08T00:07:00.429Z,0
2017-03-08T00:07:40.924Z,0
2017-03-08T00:08:21.383Z,0
2017-03-08T00:09:01.796Z,0
2017-03-08T00:09:42.330Z,0
2017-03-08T00:10:22.826Z,0
2017-03-08T00:11:03.347Z,0
2017-03-08T00:11:43.753Z,0
2017-03-08T00:12:24.247Z,0
2017-03-08T00:13:04.672Z,0
2017-03-08T00:13:45.150Z,0
2017-03-08T00:14:25.771Z,0
2017-03-08T00:15:06.219Z,0
2017-03-08T00:15:46.869Z,0
2017-03-08T00:16:27.179Z,0
2017-03-08T00:17:07.631Z,0
2017-03-08T00:17:48.127Z,0
2017-03-08T00:18:28.598Z,0
2017-03-08T00:19:09.037Z,0
2017-03-08T00:19:49.546Z,0
2017-03-08T00:20:30.097Z,0
2017-03-08T00:21:10.569Z,0
2017-03-08T00:21:51.100Z,0
2017-03-08T00:22:31.590Z,0
2017-03-08T00:23:12.098Z,0
2017-03-08T00:23:52.564Z,0
2017-03-08T00:24:33.028Z,0
2017-03-08T00:25:13.504Z,0
2017-03-08T00:25:53.989Z,0
2017-03-08T00:26:34.473Z,0
2017-03-08T00:27:15.030Z,0
2017-03-08T00:27:55.461Z,0
2017-03-08T00:28:35.938Z,0
2017-03-08T00:29:16.413Z,0
2017-03-08T00:29:56.884Z,0
2017-03-08T00:30:37.364Z,0
2017-03-08T00:31:17.856Z,0
2017-03-08T00:31:58.319Z,0
2017-03-08T00:32:38.778Z,0
2017-03-08T00:33:19.260Z,0
2017-03-08T00:33:59.737Z,0
2017-03-08T00:34:40.234Z,0
2017-03-08T00:35:20.727Z,0
2017-03-08T00:36:01.205Z,0
2017-03-08T00:36:41.688Z,0
2017-03-08T00:37:22.138Z,0
2017-03-08T00:38:02.635Z,0
2017-03-08T00:38:43.075Z,0
2017-03-08T00:39:23.538Z,0
2017-03-08T00:40:04.053Z,0
2017-03-08T00:40:44.500Z,0
2017-03-08T00:41:25.033Z,0
2017-03-08T00:42:05.472Z,0
2017-03-08T00:42:45.961Z,0
2017-03-08T00:43:26.403Z,0
2017-03-08T00:44:06.875Z,0
2017-03-08T00:44:47.488Z,0
2017-03-08T00:45:27.970Z,0
2017-03-08T00:46:08.475Z,0
2017-03-08T00:46:48.915Z,0
2017-03-08T00:47:29.434Z,0
2017-03-08T00:48:09.904Z,0
2017-03-08T00:48:50.381Z,0
2017-03-08T00:49:30.879Z,0
2017-03-08T00:50:11.359Z,0
2017-03-08T00:50:51.857Z,0
2017-03-08T00:51:32.275Z,0
2017-03-08T00:52:12.761Z,0
2017-03-08T00:52:53.229Z,0
2017-03-08T00:53:33.779Z,0
2017-03-08T00:54:14.236Z,0
2017-03-08T00:54:54.747Z,0
2017-03-08T00:55:35.205Z,0
2017-03-08T00:56:15.680Z,0
2017-03-08T00:56:56.200Z,0
2017-03-08T00:57:36.662Z,0
2017-03-08T00:58:17.162Z,0
2017-03-08T00:58:57.617Z,0
2017-03-08T00:59:38.082Z,0
2017-03-08T01:00:18.543Z,0
2017-03-08T01:00:59.007Z,0
2017-03-08T01:01:39.516Z,0
2017-03-08T01:02:19.981Z,0
2017-03-08T01:03:00.549Z,0
2017-03-08T01:03:40.963Z,0
2017-03-08T01:04:21.444Z,0
2017-03-08T01:05:01.946Z,0
2017-03-08T01:05:42.447Z,0
2017-03-08T01:06:22.949Z,0
2017-03-08T01:07:03.424Z,0
2017-03-08T01:07:43.879Z,0
2017-03-08T01:08:24.364Z,0
2017-03-08T01:09:04.855Z,0
2017-03-08T01:09:45.316Z,0
2017-03-08T01:10:25.843Z,0
2017-03-08T01:11:06.290Z,0
2017-03-08T01:11:46.977Z,0
2017-03-08T01:12:27.501Z,0
2017-03-08T01:13:07.960Z,0
2017-03-08T01:13:48.425Z,0
2017-03-08T01:14:28.891Z,0
2017-03-08T01:15:09.374Z,0
2017-03-08T01:15:49.848Z,0
2017-03-08T01:16:30.352Z,0
2017-03-08T01:17:10.840Z,0
2017-03-08T01:17:51.314Z,0
2017-03-08T01:18:31.861Z,0
2017-03-08T01:19:12.378Z,0
2017-03-08T01:19:52.830Z,0
2017-03-08T01:20:33.289Z,0
2017-03-08T01:21:13.752Z,0
2017-03-08T01:21:54.205Z,0
2017-03-08T01:22:34.756Z,0
2017-03-08T01:23:15.230Z,0
2017-03-08T01:23:55.741Z,0
2017-03-08T01:24:36.196Z,0
2017-03-08T01:25:16.751Z,0
2017-03-08T01:25:57.183Z,0
2017-03-08T01:26:37.682Z,0
2017-03-08T01:27:18.111Z,0
2017-03-08T01:27:58.612Z,0
2017-03-08T01:28:39.064Z,0
2017-03-08T01:29:19.545Z,0
2017-03-08T01:30:00.166Z,0
2017-03-08T01:30:40.513Z,0
2017-03-08T01:31:20.987Z,0
2017-03-08T01:32:01.470Z,0
2017-03-08T01:32:41.974Z,0
2017-03-08T01:33:22.411Z,0
2017-03-08T01:34:02.892Z,0
2017-03-08T01:34:43.386Z,0
2017-03-08T01:35:23.847Z,0
2017-03-08T01:36:04.317Z,0
2017-03-08T01:36:44.767Z,0
2017-03-08T01:37:25.223Z,0
2017-03-08T01:38:05.706Z,0
2017-03-08T01:38:46.154Z,0
2017-03-08T01:39:26.613Z,0
2017-03-08T01:40:07.132Z,0
2017-03-08T01:40:47.601Z,0
2017-03-08T01:41:28.050Z,0
2017-03-08T01:42:08.562Z,0
2017-03-08T01:42:49.021Z,0
2017-03-08T01:43:29.528Z,0
2017-03-08T01:44:10.045Z,0
2017-03-08T01:44:50.480Z,0
2017-03-08T01:45:30.953Z,0
2017-03-08T01:46:11.463Z,0
2017-03-08T01:46:51.909Z,0
2017-03-08T01:47:32.339Z,0
2017-03-08T01:48:12.877Z,0
2017-03-08T01:48:53.332Z,0
2017-03-08T01:49:33.829Z,0
2017-03-08T01:50:14.360Z,0
2017-03-08T01:50:54.834Z,0
2017-03-08T01:51:35.333Z,0
2017-03-08T01:52:15.772Z,0
2017-03-08T01:52:56.230Z,0
2017-03-08T01:53:36.712Z,0
2017-03-08T01:54:17.231Z,0
2017-03-08T01:54:57.731Z,0
2017-03-08T01:55:38.226Z,0
2017-03-08T01:56:18.776Z,0
2017-03-08T01:56:59.230Z,0
2017-03-08T01:57:39.729Z,0
2017-03-08T01:58:20.190Z,0
2017-03-08T01:59:00.704Z,0
2017-03-08T01:59:41.174Z,0
2017-03-08T02:00:21.766Z,0
2017-03-08T02:01:02.202Z,0
2017-03-08T02:01:42.720Z,0
2017-03-08T02:02:23.165Z,0
2017-03-08T02:03:03.680Z,0
2017-03-08T02:03:44.146Z,0
2017-03-08T02:04:24.613Z,0
2017-03-08T02:05:05.114Z,0
2017-03-08T02:05:45.567Z,0
2017-03-08T02:06:26.078Z,0
2017-03-08T02:07:06.564Z,0
2017-03-08T02:07:47.098Z,0
2017-03-08T02:08:27.555Z,0
2017-03-08T02:09:08.008Z,0
2017-03-08T02:09:48.479Z,0
2017-03-08T02:10:28.979Z,0
2017-03-08T02:11:09.446Z,0
2017-03-08T02:11:49.943Z,0
2017-03-08T02:12:30.477Z,0
2017-03-08T02:13:10.900Z,0
2017-03-08T02:13:51.390Z,0
2017-03-08T02:14:31.886Z,0
2017-03-08T02:15:12.369Z,0
2017-03-08T02:15:52.845Z,0
2017-03-08T02:16:33.273Z,0
2017-03-08T02:17:13.841Z,0
2017-03-08T02:17:54.301Z,0
2017-03-08T02:18:34.874Z,0
2017-03-08T02:19:15.368Z,0
2017-03-08T02:19:55.851Z,0
2017-03-08T02:20:36.395Z,0
2017-03-08T02:21:16.824Z,0
2017-03-08T02:21:57.251Z,0
2017-03-08T02:22:37.744Z,0
2017-03-08T02:23:18.229Z,0
2017-03-08T02:23:58.712Z,0
2017-03-08T02:24:39.242Z,0
2017-03-08T02:25:19.691Z,0
2017-03-08T02:26:00.173Z,0
2017-03-08T02:26:40.677Z,0
2017-03-08T02:27:21.114Z,0
2017-03-08T02:28:01.604Z,0
2017-03-08T02:28:42.072Z,0
2017-03-08T02:29:22.531Z,0
2017-03-08T02:30:03.011Z,0
2017-03-08T02:30:43.503Z,0
2017-03-08T02:31:23.949Z,0
2017-03-08T02:32:04.423Z,0
2017-03-08T02:32:44.928Z,0
2017-03-08T02:33:25.390Z,0
2017-03-08T02:34:05.890Z,0
2017-03-08T02:34:46.320Z,0
2017-03-08T02:35:26.815Z,0
2017-03-08T02:36:07.408Z,0
2017-03-08T02:36:47.968Z,0
2017-03-08T02:37:28.413Z,0
2017-03-08T02:38:08.900Z,0
2017-03-08T02:38:49.374Z,0
2017-03-08T02:39:29.877Z,0
2017-03-08T02:40:10.303Z,0
2017-03-08T02:40:50.781Z,0
2017-03-08T02:41:31.248Z,0
2017-03-08T02:42:11.720Z,0
2017-03-08T02:42:52.175Z,0
2017-03-08T02:43:32.710Z,0
2017-03-08T02:44:13.142Z,0
2017-03-08T02:44:53.683Z,0
2017-03-08T02:45:34.138Z,0
2017-03-08T02:46:14.631Z,0
2017-03-08T02:46:55.156Z,0
2017-03-08T02:47:35.614Z,0
2017-03-08T02:48:16.058Z,0
2017-03-08T02:48:56.577Z,0
2017-03-08T02:49:37.052Z,0
2017-03-08T02:50:17.506Z,0
2017-03-08T02:50:57.970Z,0
2017-03-08T02:51:38.510Z,0
2017-03-08T02:52:18.936Z,0
2017-03-08T02:52:59.396Z,0
2017-03-08T02:53:39.935Z,0
2017-03-08T02:54:20.370Z,0
2017-03-08T02:55:00.879Z,0
2017-03-08T02:55:41.292Z,0
2017-03-08T02:56:21.759Z,0
2017-03-08T02:57:02.318Z,0
2017-03-08T02:57:42.807Z,0
2017-03-08T02:58:23.327Z,0
2017-03-08T02:59:03.830Z,0
2017-03-08T02:59:44.275Z,0
2017-03-08T03:00:24.748Z,0
2017-03-08T03:01:05.217Z,0
2017-03-08T03:01:45.733Z,0
2017-03-08T03:02:26.142Z,0
2017-03-08T03:03:06.626Z,0
2017-03-08T03:03:47.146Z,0
2017-03-08T03:04:27.613Z,0
2017-03-08T03:05:08.115Z,0
2017-03-08T03:05:48.605Z,0
2017-03-08T03:06:29.081Z,0
2017-03-08T03:07:09.597Z,0
2017-03-08T03:07:50.068Z,0
2017-03-08T03:08:30.634Z,0
2017-03-08T03:09:11.115Z,0
2017-03-08T03:09:51.625Z,0
2017-03-08T03:10:32.092Z,0
2017-03-08T03:11:12.550Z,0
2017-03-08T03:11:53.017Z,0
2017-03-08T03:12:33.499Z,0
2017-03-08T03:13:14.009Z,0
2017-03-08T03:13:54.456Z,0
2017-03-08T03:14:34.964Z,0
2017-03-08T03:15:15.396Z,0
2017-03-08T03:15:55.892Z,0
2017-03-08T03:16:36.374Z,0
2017-03-08T03:17:16.842Z,0
2017-03-08T03:17:57.358Z,0
2017-03-08T03:18:37.876Z,0
2017-03-08T03:19:18.315Z,0
2017-03-08T03:19:58.851Z,0
2017-03-08T03:20:39.376Z,0
2017-03-08T03:21:19.806Z,0
2017-03-08T03:22:00.285Z,0
2017-03-08T03:22:40.784Z,0
2017-03-08T03:23:21.261Z,0
2017-03-08T03:24:01.748Z,0
2017-03-08T03:24:42.235Z,0
2017-03-08T03:25:22.775Z,0
2017-03-08T03:26:03.217Z,0
2017-03-08T03:26:43.635Z,0
2017-03-08T03:27:24.128Z,0
2017-03-08T03:28:04.632Z,0
2017-03-08T03:28:45.098Z,0
2017-03-08T03:29:25.597Z,0
2017-03-08T03:30:06.075Z,0
2017-03-08T03:30:46.553Z,0
2017-03-08T03:31:27.046Z,0
2017-03-08T03:32:07.537Z,0
2017-03-08T03:32:47.998Z,0
2017-03-08T03:33:28.458Z,0
2017-03-08T03:34:08.923Z,0
2017-03-08T03:34:51.958Z,0
2017-03-08T03:35:32.424Z,0
2017-03-08T03:36:12.938Z,0
2017-03-08T03:36:53.410Z,0
2017-03-08T03:37:33.901Z,0
2017-03-08T03:38:14.396Z,0
2017-03-08T03:38:54.863Z,0
2017-03-08T03:39:35.371Z,0
2017-03-08T03:40:15.873Z,0
2017-03-08T03:40:56.328Z,0
2017-03-08T03:41:36.848Z,0
2017-03-08T03:42:17.279Z,0
2017-03-08T03:42:57.804Z,0
2017-03-08T03:43:38.235Z,0
2017-03-08T03:44:18.661Z,0
2017-03-08T03:44:59.166Z,0
2017-03-08T03:45:39.651Z,0
2017-03-08T03:46:20.129Z,0
2017-03-08T03:47:00.547Z,0
2017-03-08T03:47:41.081Z,0
2017-03-08T03:48:21.504Z,0
2017-03-08T03:49:02.016Z,0
2017-03-08T03:49:42.462Z,0
2017-03-08T03:50:22.942Z,0
2017-03-08T03:51:03.412Z,0
2017-03-08T03:51:43.834Z,0
2017-03-08T03:52:24.356Z,0
2017-03-08T03:53:04.821Z,0
2017-03-08T03:53:45.302Z,0
2017-03-08T03:54:25.776Z,0
2017-03-08T03:55:06.288Z,0
2017-03-08T03:55:46.806Z,0
2017-03-08T03:56:27.267Z,0
2017-03-08T03:57:07.762Z,0
2017-03-08T03:57:48.234Z,0
2017-03-08T03:58:28.794Z,0
2017-03-08T03:59:09.188Z,0
2017-03-08T03:59:49.651Z,0
2017-03-08T04:00:30.161Z,0
2017-03-08T04:01:10.644Z,0
2017-03-08T04:01:51.073Z,0
2017-03-08T04:02:31.538Z,0
2017-03-08T04:03:12.080Z,0
2017-03-08T04:03:52.678Z,0
2017-03-08T04:04:33.069Z,0
2017-03-08T04:05:13.572Z,0
2017-03-08T04:05:54.029Z,0
2017-03-08T04:06:34.525Z,0
2017-03-08T04:07:15.038Z,0
2017-03-08T04:07:55.523Z,0
2017-03-08T04:08:35.966Z,0
2017-03-08T04:09:16.441Z,0
2017-03-08T04:09:56.936Z,0
2017-03-08T04:10:37.414Z,0
2017-03-08T04:11:17.939Z,0
2017-03-08T04:11:58.346Z,0
2017-03-08T04:12:38.823Z,0
2017-03-08T04:13:19.316Z,0
2017-03-08T04:13:59.888Z,0
2017-03-08T04:14:40.334Z,0
2017-03-08T04:15:20.784Z,0
2017-03-08T04:16:01.278Z,0
2017-03-08T04:16:41.760Z,0
2017-03-08T04:17:22.238Z,0
2017-03-08T04:18:02.733Z,0
2017-03-08T04:18:43.190Z,0
2017-03-08T04:19:23.650Z,0
2017-03-08T04:20:04.113Z,0
2017-03-08T04:20:44.579Z,0
2017-03-08T04:21:25.095Z,0
2017-03-08T04:22:05.568Z,0
2017-03-08T04:22:46.084Z,0
2017-03-08T04:23:26.537Z,0
2017-03-08T04:24:06.990Z,0
2017-03-08T04:24:47.504Z,0
2017-03-08T04:25:27.957Z,0
2017-03-08T04:26:08.490Z,0
2017-03-08T04:26:48.950Z,0
2017-03-08T04:27:29.477Z,0
2017-03-08T04:28:09.881Z,0
2017-03-08T04:28:50.431Z,0
2017-03-08T04:29:30.892Z,0
2017-03-08T04:30:11.435Z,0
2017-03-08T04:30:51.861Z,0
2017-03-08T04:31:32.346Z,0
2017-03-08T04:32:12.880Z,0
2017-03-08T04:32:53.353Z,0
2017-03-08T04:33:33.824Z,0
2017-03-08T04:34:14.262Z,0
2017-03-08T04:34:54.801Z,0
2017-03-08T04:35:35.326Z,0
2017-03-08T04:36:15.839Z,0
2017-03-08T04:36:56.260Z,0
2017-03-08T04:37:36.771Z,0
2017-03-08T04:38:17.212Z,0
2017-03-08T04:38:57.685Z,0
2017-03-08T04:39:38.166Z,0
2017-03-08T04:40:18.604Z,0
2017-03-08T04:40:59.104Z,0
2017-03-08T04:41:39.634Z,0
2017-03-08T04:42:20.116Z,0
2017-03-08T04:43:00.606Z,0
2017-03-08T04:43:41.027Z,0
2017-03-08T04:44:21.519Z,0
2017-03-08T04:45:01.968Z,0
2017-03-08T04:45:42.489Z,0
2017-03-08T04:46:22.950Z,0
2017-03-08T04:47:03.406Z,0
2017-03-08T04:47:43.892Z,0
2017-03-08T04:48:24.323Z,0
2017-03-08T04:49:04.830Z,0
2017-03-08T04:49:45.380Z,0
2017-03-08T04:50:25.788Z,0
2017-03-08T04:51:06.300Z,0
2017-03-08T04:51:46.778Z,0
2017-03-08T04:52:27.257Z,0
2017-03-08T04:53:07.752Z,0
2017-03-08T04:53:48.206Z,0
2017-03-08T04:54:28.698Z,0
2017-03-08T04:55:09.216Z,0
2017-03-08T04:55:49.730Z,0
2017-03-08T04:56:30.244Z,0
2017-03-08T04:57:10.716Z,0
2017-03-08T04:57:51.195Z,0
2017-03-08T04:58:31.678Z,0
2017-03-08T04:59:12.148Z,0
2017-03-08T04:59:52.751Z,0
2017-03-08T05:00:33.161Z,0
2017-03-08T05:01:13.615Z,0
2017-03-08T05:01:54.121Z,0
2017-03-08T05:02:34.595Z,0
2017-03-08T05:03:15.074Z,0
2017-03-08T05:03:55.619Z,0
2017-03-08T05:04:36.024Z,0
2017-03-08T05:05:16.505Z,0
2017-03-08T05:05:56.991Z,0
2017-03-08T05:06:37.469Z,0
2017-03-08T05:07:17.977Z,0
2017-03-08T05:07:58.441Z,0
2017-03-08T05:08:38.917Z,0
2017-03-08T05:09:19.430Z,0
2017-03-08T05:09:59.870Z,0
2017-03-08T05:10:40.399Z,0
2017-03-08T05:11:20.880Z,0
2017-03-08T05:12:01.408Z,0
2017-03-08T05:12:41.888Z,0
2017-03-08T05:13:22.408Z,0
2017-03-08T05:14:02.873Z,0
2017-03-08T05:14:43.557Z,0
2017-03-08T05:15:24.206Z,0
2017-03-08T05:16:04.921Z,0
2017-03-08T05:16:45.657Z,0
2017-03-08T05:17:26.571Z,0
2017-03-08T05:18:07.026Z,0
2017-03-08T05:18:47.480Z,0
2017-03-08T05:19:27.959Z,0
2017-03-08T05:20:08.415Z,0
2017-03-08T05:20:55.369Z,0
2017-03-08T05:21:35.882Z,0
2017-03-08T05:22:16.334Z,0
2017-03-08T05:22:56.825Z,0
2017-03-08T05:23:37.277Z,0
2017-03-08T05:24:17.756Z,4
2017-03-08T05:24:58.217Z,4
2017-03-08T05:25:38.712Z,0
2017-03-08T05:26:19.162Z,0
2017-03-08T05:26:59.649Z,0
2017-03-08T05:27:40.166Z,4
2017-03-08T05:28:20.703Z,4
2017-03-08T05:29:01.124Z,0
2017-03-08T05:29:41.639Z,0
2017-03-08T05:30:22.105Z,4
2017-03-08T05:31:02.573Z,4
2017-03-08T05:31:43.041Z,4
2017-03-08T05:32:23.556Z,4
2017-03-08T05:33:04.015Z,4
2017-03-08T05:33:44.503Z,8
2017-03-08T05:34:24.912Z,4
2017-03-08T05:35:05.383Z,8
2017-03-08T05:35:45.884Z,8
2017-03-08T05:36:26.323Z,8
2017-03-08T05:37:06.821Z,12
2017-03-08T05:37:47.373Z,12
2017-03-08T05:38:27.854Z,12
2017-03-08T05:39:08.319Z,16
2017-03-08T05:39:48.809Z,16
2017-03-08T05:40:29.248Z,20
2017-03-08T05:41:09.727Z,20
2017-03-08T05:41:50.237Z,24
2017-03-08T05:42:30.728Z,28
2017-03-08T05:43:11.198Z,28
2017-03-08T05:43:51.694Z,36
2017-03-08T05:44:32.147Z,36
2017-03-08T05:45:12.661Z,40
2017-03-08T05:45:53.148Z,44
2017-03-08T05:46:33.596Z,52
2017-03-08T05:47:14.059Z,56
2017-03-08T05:47:54.534Z,60
2017-03-08T05:48:35.137Z,68
2017-03-08T05:49:15.658Z,72
2017-03-08T05:49:56.104Z,76
2017-03-08T05:50:36.577Z,84
2017-03-08T05:51:17.002Z,92
2017-03-08T05:51:57.471Z,96
2017-03-08T05:52:37.959Z,104
2017-03-08T05:53:18.457Z,112
2017-03-08T05:53:58.912Z,124
2017-03-08T05:54:39.453Z,136
2017-03-08T05:55:19.889Z,144
2017-03-08T05:56:00.363Z,152
2017-03-08T05:56:40.871Z,160
2017-03-08T05:57:21.325Z,172
2017-03-08T05:58:01.866Z,176
2017-03-08T05:58:42.368Z,192
2017-03-08T05:59:22.786Z,204
2017-03-08T06:00:03.256Z,220
2017-03-08T06:00:43.852Z,232
2017-03-08T06:01:24.343Z,244
2017-03-08T06:02:04.808Z,256
2017-03-08T06:02:45.317Z,264
2017-03-08T06:03:26.068Z,280
2017-03-08T06:04:06.587Z,296
2017-03-08T06:04:47.925Z,308
2017-03-08T06:05:28.199Z,328
2017-03-08T06:06:08.749Z,344
2017-03-08T06:06:49.252Z,368
2017-03-08T06:07:29.723Z,388
2017-03-08T06:08:10.228Z,416
2017-03-08T06:08:50.835Z,444
2017-03-08T06:09:31.286Z,472
2017-03-08T06:10:11.796Z,504
2017-03-08T06:10:52.253Z,536
2017-03-08T06:11:32.737Z,568
2017-03-08T06:12:13.172Z,600
2017-03-08T06:12:53.984Z,636
2017-03-08T06:13:35.191Z,664
2017-03-08T06:14:15.554Z,688
2017-03-08T06:14:56.052Z,712
2017-03-08T06:15:36.479Z,728
2017-03-08T06:16:16.952Z,736
2017-03-08T06:16:57.474Z,744
2017-03-08T06:17:37.935Z,748
2017-03-08T06:18:18.419Z,752
2017-03-08T06:18:58.890Z,760
2017-03-08T06:19:39.345Z,772
2017-03-08T06:20:19.791Z,780
2017-03-08T06:21:00.323Z,784
2017-03-08T06:21:40.734Z,792
2017-03-08T06:22:21.222Z,800
2017-03-08T06:23:01.710Z,816
2017-03-08T06:23:42.174Z,832
2017-03-08T06:25:58.279Z,896
2017-03-08T06:26:40.309Z,904
2017-03-08T06:27:20.734Z,916
2017-03-08T06:28:01.213Z,908
2017-03-08T06:28:41.682Z,888
2017-03-08T06:29:22.121Z,872
2017-03-08T06:30:02.621Z,864
2017-03-08T06:30:43.146Z,856
2017-03-08T06:31:23.578Z,852
2017-03-08T06:32:04.071Z,856
2017-03-08T06:32:44.530Z,864
2017-03-08T06:33:24.998Z,864
2017-03-08T06:34:05.515Z,852
2017-03-08T06:34:45.968Z,836
2017-03-08T06:35:26.430Z,836
2017-03-08T06:36:06.924Z,844
2017-03-08T06:36:47.364Z,848
2017-03-08T06:37:27.853Z,868
2017-03-08T06:38:08.388Z,900
2017-03-08T06:38:48.873Z,944
2017-03-08T06:39:29.325Z,984
2017-03-08T06:40:09.761Z,1012
2017-03-08T06:40:50.232Z,1028
2017-03-08T06:41:30.723Z,1036
2017-03-08T06:42:11.193Z,1056
2017-03-08T06:42:51.643Z,1096
2017-03-08T06:43:32.142Z,1132
2017-03-08T06:44:12.622Z,1156
2017-03-08T06:44:53.116Z,1188
2017-03-08T06:45:33.551Z,1228
2017-03-08T06:46:14.068Z,1264
2017-03-08T06:46:54.526Z,1312
2017-03-08T06:47:34.973Z,1368
2017-03-08T06:48:15.470Z,1432
2017-03-08T06:48:55.957Z,1512
2017-03-08T06:49:36.476Z,1592
2017-03-08T06:50:16.911Z,1660
2017-03-08T06:50:57.409Z,1724
2017-03-08T06:51:37.858Z,1784
2017-03-08T06:52:18.322Z,1880
2017-03-08T06:52:58.783Z,2040
2017-03-08T06:53:39.260Z,2204
2017-03-08T06:54:19.710Z,2336
2017-03-08T06:55:00.195Z,2404
2017-03-08T06:55:40.682Z,2444
2017-03-08T06:56:21.152Z,2464
2017-03-08T06:57:01.617Z,2456
2017-03-08T06:57:42.102Z,2408
2017-03-08T06:58:22.561Z,2348
2017-03-08T06:59:03.031Z,2300
2017-03-08T06:59:43.531Z,2284
2017-03-08T07:00:24.027Z,2348
2017-03-08T07:01:04.488Z,2444
2017-03-08T07:01:44.943Z,2528
2017-03-08T07:02:25.398Z,2576
2017-03-08T07:03:05.912Z,2600
2017-03-08T07:03:46.381Z,2620
2017-03-08T07:04:26.830Z,2644
2017-03-08T07:05:07.294Z,2672
2017-03-08T07:05:47.762Z,2700
2017-03-08T07:06:28.244Z,2732
2017-03-08T07:07:08.717Z,2784
2017-03-08T07:07:49.160Z,2860
2017-03-08T07:08:29.631Z,2940
2017-03-08T07:09:10.108Z,2956
2017-03-08T07:09:50.576Z,2816
2017-03-08T07:10:31.115Z,2596
2017-03-08T07:11:11.560Z,2452
2017-03-08T07:11:52.034Z,2580
2017-03-08T07:13:51.622Z,2868
2017-03-08T07:14:32.699Z,2968
2017-03-08T07:15:13.173Z,3028
2017-03-08T07:15:53.636Z,3012
2017-03-08T07:16:34.093Z,2908
2017-03-08T07:17:14.646Z,2932
2017-03-08T07:17:55.115Z,2896
2017-03-08T07:18:35.597Z,2908
2017-03-08T07:19:16.098Z,2916
2017-03-08T07:19:56.590Z,2824
2017-03-08T07:20:37.103Z,2728
2017-03-08T07:21:19.129Z,2592
2017-03-08T07:21:59.638Z,2616
2017-03-08T07:22:40.074Z,2584
2017-03-08T07:23:20.529Z,2488
2017-03-08T07:24:01.057Z,2524
2017-03-08T07:24:41.514Z,2616
2017-03-08T07:25:21.968Z,2592
2017-03-08T07:26:02.449Z,2680
2017-03-08T07:26:42.943Z,2692
2017-03-08T07:27:23.397Z,2792
2017-03-08T07:28:03.898Z,2864
2017-03-08T07:28:44.351Z,2832
2017-03-08T07:29:24.841Z,2696
2017-03-08T07:30:05.302Z,2636
2017-03-08T07:30:45.787Z,2612
2017-03-08T07:31:26.253Z,2588
2017-03-08T07:32:06.755Z,2596
2017-03-08T07:32:47.194Z,2696
2017-03-08T07:33:27.689Z,2700
2017-03-08T07:34:08.111Z,2592
2017-03-08T07:34:48.642Z,2560
2017-03-08T07:35:29.095Z,2640
2017-03-08T07:36:09.588Z,2756
2017-03-08T07:36:50.101Z,2780
2017-03-08T07:37:30.577Z,2652
2017-03-08T07:38:11.055Z,2532
2017-03-08T07:38:51.551Z,2620
2017-03-08T07:39:32.034Z,2852
2017-03-08T07:40:12.522Z,2916
2017-03-08T07:40:52.994Z,2908
2017-03-08T07:41:34.169Z,2936
2017-03-08T07:42:14.660Z,3084
2017-03-08T07:42:55.112Z,3196
2017-03-08T07:43:35.614Z,3260
2017-03-08T07:44:16.059Z,3256
2017-03-08T07:44:56.526Z,3144
2017-03-08T07:45:37.013Z,3044
2017-03-08T07:46:17.525Z,2916
2017-03-08T07:46:58.020Z,2896
2017-03-08T07:47:38.492Z,2848
2017-03-08T07:48:18.944Z,2704
2017-03-08T07:48:59.417Z,2500
2017-03-08T07:49:39.970Z,2432
2017-03-08T07:50:20.990Z,2576
2017-03-08T07:51:02.382Z,2776
2017-03-08T07:51:42.668Z,3112
2017-03-08T07:52:23.126Z,3492
2017-03-08T07:53:03.640Z,3632
2017-03-08T07:53:44.374Z,3580
2017-03-08T07:54:25.095Z,3484
2017-03-08T07:55:05.962Z,3540
2017-03-08T07:55:47.840Z,3772
2017-03-08T07:56:28.309Z,3804
2017-03-08T07:57:08.743Z,3684
2017-03-08T07:57:49.207Z,3552
2017-03-08T07:58:29.673Z,3460
2017-03-08T07:59:10.152Z,3396
2017-03-08T07:59:50.641Z,3384
2017-03-08T08:00:31.172Z,3284
2017-03-08T08:01:11.628Z,3272
2017-03-08T08:01:52.169Z,3484
2017-03-08T08:02:32.934Z,3740
2017-03-08T08:03:13.757Z,3912
2017-03-08T08:03:59.588Z,3928
2017-03-08T08:04:46.834Z,3848
2017-03-08T08:05:34.646Z,3564
2017-03-08T08:06:15.201Z,3408
2017-03-08T08:06:55.890Z,3596
2017-03-08T08:07:38.138Z,3948
2017-03-08T08:08:19.310Z,4316
2017-03-08T08:09:00.140Z,4440
2017-03-08T08:09:43.628Z,4424
2017-03-08T08:10:28.975Z,4336
2017-03-08T08:11:17.706Z,4228
2017-03-08T08:12:05.882Z,4160
2017-03-08T08:12:50.557Z,4120
2017-03-08T08:13:32.944Z,4092
2017-03-08T08:14:13.577Z,4032
2017-03-08T08:14:54.438Z,3984
2017-03-08T08:15:35.157Z,3964
2017-03-08T08:16:15.902Z,3932
2017-03-08T08:16:56.597Z,3912
2017-03-08T08:17:39.406Z,3864
2017-03-08T08:20:15.984Z,3700
2017-03-08T08:20:58.891Z,3488
2017-03-08T08:21:39.646Z,3392
2017-03-08T08:22:20.962Z,3588
2017-03-08T08:23:01.751Z,3720
2017-03-08T08:23:42.740Z,3832
2017-03-08T08:24:23.498Z,3932
2017-03-08T08:25:04.342Z,4000
2017-03-08T08:25:44.862Z,4036
2017-03-08T08:26:25.284Z,4048
2017-03-08T08:29:14.871Z,4124
2017-03-08T08:30:05.452Z,4156
2017-03-08T08:30:58.994Z,4204
2017-03-08T08:31:40.465Z,4260
2017-03-08T08:32:20.938Z,4300
2017-03-08T08:33:01.412Z,4332
2017-03-08T08:33:41.879Z,4384
2017-03-08T08:34:22.329Z,4416
2017-03-08T08:35:02.852Z,4428
2017-03-08T08:35:43.289Z,4488
2017-03-08T08:36:23.800Z,4524
2017-03-08T08:37:04.368Z,4576
2017-03-08T08:37:44.869Z,4600
2017-03-08T08:38:25.327Z,4636
2017-03-08T08:39:05.803Z,4668
2017-03-08T08:39:46.341Z,4732
2017-03-08T08:40:26.943Z,4784
2017-03-08T08:41:15.372Z,4812
2017-03-08T08:42:00.229Z,4892
2017-03-08T08:42:42.796Z,4908
2017-03-08T08:43:23.497Z,4932
2017-03-08T08:44:03.965Z,4864
2017-03-08T08:44:44.435Z,4764
2017-03-08T08:45:24.930Z,4904
2017-03-08T08:46:05.540Z,5088
2017-03-08T08:46:46.189Z,5224
2017-03-08T08:47:26.680Z,5300
2017-03-08T08:48:07.198Z,5388
2017-03-08T08:48:47.681Z,5424
2017-03-08T08:49:30.487Z,5396
2017-03-08T08:50:13.023Z,5364
2017-03-08T08:50:53.583Z,5300
2017-03-08T08:51:34.141Z,5224
2017-03-08T08:52:14.628Z,5124
2017-03-08T08:52:55.195Z,5012
2017-03-08T08:53:35.650Z,4888
2017-03-08T08:54:16.234Z,4768
2017-03-08T08:54:56.986Z,4680
2017-03-08T08:55:37.657Z,4660
2017-03-08T08:56:18.281Z,4692
2017-03-08T08:56:58.833Z,4744
2017-03-08T08:57:39.277Z,4816
2017-03-08T08:58:19.902Z,4900
2017-03-08T08:59:00.376Z,4972
2017-03-08T08:59:40.922Z,5064
2017-03-08T09:00:21.413Z,5132
2017-03-08T09:01:01.906Z,5176
2017-03-08T09:01:42.374Z,5204
2017-03-08T09:02:22.870Z,5268
2017-03-08T09:03:03.393Z,5312
2017-03-08T09:03:43.854Z,5340
2017-03-08T09:04:24.352Z,5380
2017-03-08T09:05:04.836Z,5408
2017-03-08T09:05:45.985Z,5412
2017-03-08T09:06:26.524Z,5432
2017-03-08T09:07:06.959Z,5444
2017-03-08T09:07:47.462Z,5452
2017-03-08T09:08:27.950Z,5440
2017-03-08T09:09:08.419Z,5432
2017-03-08T09:09:49.033Z,5396
2017-03-08T09:10:29.507Z,5368
2017-03-08T09:11:10.039Z,5364
2017-03-08T09:11:50.572Z,5348
2017-03-08T09:12:31.250Z,5332
2017-03-08T09:13:11.668Z,5340
2017-03-08T09:13:52.178Z,5372
2017-03-08T09:14:32.618Z,5396
2017-03-08T09:15:13.072Z,5372
2017-03-08T09:15:53.545Z,5232
2017-03-08T09:16:34.074Z,5064
2017-03-08T09:17:14.586Z,4928
2017-03-08T09:17:55.056Z,4808
2017-03-08T09:18:35.507Z,4732
2017-03-08T09:19:15.955Z,4704
2017-03-08T09:19:56.623Z,4704
2017-03-08T09:20:37.103Z,4644
2017-03-08T09:21:17.562Z,4596
2017-03-08T09:21:58.060Z,4524
2017-03-08T09:22:38.544Z,4456
2017-03-08T09:23:19.215Z,4360
2017-03-08T09:23:59.617Z,4324
2017-03-08T09:24:40.175Z,4288
2017-03-08T09:25:20.627Z,4244
2017-03-08T09:26:01.163Z,4240
2017-03-08T09:26:41.648Z,4112
2017-03-08T09:27:22.095Z,3672
2017-03-08T09:28:02.582Z,3368
2017-03-08T09:28:43.045Z,3332
2017-03-08T09:29:23.612Z,3360
2017-03-08T09:30:04.050Z,3384
2017-03-08T09:30:46.186Z,3472
2017-03-08T09:31:35.617Z,3384
2017-03-08T09:32:28.818Z,3700
2017-03-08T09:33:09.850Z,4336
2017-03-08T09:33:50.373Z,4800
2017-03-08T09:34:30.880Z,5028
2017-03-08T09:35:12.050Z,5292
2017-03-08T09:35:52.530Z,5648
2017-03-08T09:36:32.973Z,5776
2017-03-08T09:37:13.513Z,5896
2017-03-08T09:37:53.972Z,6000
2017-03-08T09:38:34.508Z,6104
2017-03-08T09:39:14.985Z,6140
2017-03-08T09:39:55.456Z,6208
2017-03-08T09:40:35.901Z,6172
2017-03-08T09:41:17.744Z,6132
2017-03-08T09:41:58.231Z,6268
2017-03-08T09:42:38.788Z,6276
2017-03-08T09:43:19.257Z,6128
2017-03-08T09:43:59.881Z,6068
2017-03-08T09:44:40.320Z,6212